createdAt,value
2019-03-18T00:01:18.148Z,21.57
2019-03-18T00:03:51.612Z,20.63
2019-03-18T00:06:26.576Z,31.87
2019-03-18T00:09:00.171Z,20.80
2019-03-18T00:11:34.219Z,19.33
2019-03-18T00:14:08.025Z,22.97
2019-03-18T00:16:42.598Z,13.90
2019-03-18T00:19:16.297Z,17.33
2019-03-18T00:21:51.001Z,16.60
2019-03-18T00:24:24.710Z,32.00
2019-03-18T00:26:59.673Z,26.60
2019-03-18T00:29:33.696Z,19.93
2019-03-18T00:32:07.843Z,21.00
2019-03-18T00:34:42.812Z,25.93
2019-03-18T00:37:17.453Z,18.53
2019-03-18T00:39:51.922Z,15.83
2019-03-18T00:42:24.692Z,22.50
2019-03-18T00:44:58.777Z,17.20
2019-03-18T00:47:32.821Z,22.50
2019-03-18T00:50:17.186Z,17.50
2019-03-18T00:52:51.322Z,15.93
2019-03-18T00:55:25.281Z,15.80
2019-03-18T00:58:02.199Z,13.93
2019-03-18T01:00:38.290Z,19.60
2019-03-18T01:03:12.300Z,16.47
2019-03-18T01:05:46.048Z,19.03
2019-03-18T01:08:20.362Z,21.83
2019-03-18T01:10:56.774Z,18.37
2019-03-18T01:13:30.607Z,21.13
2019-03-18T01:16:04.196Z,17.40
2019-03-18T01:18:38.705Z,33.63
2019-03-18T01:21:12.466Z,23.27
2019-03-18T01:23:47.205Z,21.67
2019-03-18T01:26:20.770Z,25.93
2019-03-18T01:28:54.882Z,25.63
2019-03-18T01:31:28.505Z,24.83
2019-03-18T01:34:02.911Z,24.63
2019-03-18T01:36:39.083Z,22.17
2019-03-18T01:39:19.421Z,24.10
2019-03-18T01:41:53.018Z,24.20
2019-03-18T01:44:27.151Z,29.17
2019-03-18T01:47:01.037Z,20.47
2019-03-18T01:49:35.242Z,24.60
2019-03-18T01:52:08.902Z,23.93
2019-03-18T01:54:43.776Z,24.60
2019-03-18T01:57:17.615Z,29.40
2019-03-18T01:59:54.269Z,27.33
2019-03-18T02:02:27.892Z,28.63
2019-03-18T02:05:02.049Z,21.70
2019-03-18T02:07:35.502Z,24.53
2019-03-18T02:10:11.238Z,28.97
2019-03-18T02:12:44.807Z,27.07
2019-03-18T02:15:19.084Z,27.80
2019-03-18T02:17:54.826Z,29.77
2019-03-18T02:20:28.845Z,28.50
2019-03-18T02:23:02.420Z,34.10
2019-03-18T02:25:36.683Z,30.77
2019-03-18T02:28:10.347Z,31.80
2019-03-18T02:30:44.418Z,36.50
2019-03-18T02:33:17.862Z,33.47
2019-03-18T02:35:52.040Z,25.30
2019-03-18T02:38:25.781Z,27.77
2019-03-18T02:40:59.689Z,27.10
2019-03-18T02:43:35.426Z,24.60
2019-03-18T02:46:10.747Z,36.40
2019-03-18T02:48:46.653Z,28.57
2019-03-18T02:51:20.772Z,26.87
2019-03-18T02:53:56.425Z,23.90
2019-03-18T02:56:30.312Z,25.37
2019-03-18T02:59:04.047Z,25.20
2019-03-18T03:01:41.218Z,29.27
2019-03-18T03:04:14.748Z,21.57
2019-03-18T03:06:48.392Z,24.80
2019-03-18T03:09:22.022Z,24.30
2019-03-18T03:11:56.186Z,26.00
2019-03-18T03:14:29.739Z,25.57
2019-03-18T03:17:03.513Z,22.33
2019-03-18T03:19:37.026Z,21.93
2019-03-18T03:22:11.216Z,21.53
2019-03-18T03:24:44.380Z,18.07
2019-03-18T03:27:18.611Z,27.73
2019-03-18T03:29:53.686Z,20.90
2019-03-18T03:32:27.728Z,21.37
2019-03-18T03:35:01.655Z,17.03
2019-03-18T03:37:36.090Z,23.17
2019-03-18T03:40:09.682Z,21.63
2019-03-18T03:42:43.597Z,19.37
2019-03-18T03:45:17.203Z,17.20
2019-03-18T03:47:51.280Z,26.13
2019-03-18T03:50:27.187Z,28.23
2019-03-18T03:53:01.288Z,23.27
2019-03-18T03:55:34.878Z,18.40
2019-03-18T03:58:08.559Z,37.47
2019-03-18T04:00:42.252Z,23.67
2019-03-18T04:03:18.838Z,35.00
2019-03-18T04:05:52.567Z,28.17
2019-03-18T04:08:26.456Z,45.33
2019-03-18T04:11:02.485Z,22.90
2019-03-18T04:13:36.548Z,20.87
2019-03-18T04:16:10.325Z,25.17
2019-03-18T04:18:44.790Z,21.87
2019-03-18T04:21:18.209Z,26.57
2019-03-18T04:23:52.197Z,22.70
2019-03-18T04:26:25.713Z,24.90
2019-03-18T04:28:59.644Z,27.37
2019-03-18T04:31:33.343Z,18.07
2019-03-18T04:34:07.058Z,18.80
2019-03-18T04:36:40.560Z,20.53
2019-03-18T04:39:15.368Z,27.13
2019-03-18T04:41:48.994Z,21.27
2019-03-18T04:44:24.135Z,28.73
2019-03-18T04:46:58.146Z,28.00
2019-03-18T04:49:32.753Z,26.57
2019-03-18T04:52:06.281Z,27.23
2019-03-18T04:54:40.216Z,23.17
2019-03-18T04:57:13.552Z,34.80
2019-03-18T04:59:47.484Z,24.17
2019-03-18T05:02:22.089Z,42.83
2019-03-18T05:04:58.986Z,33.90
2019-03-18T05:07:32.610Z,27.40
2019-03-18T05:10:06.604Z,21.70
2019-03-18T05:12:40.615Z,28.03
2019-03-18T05:15:14.419Z,41.33
2019-03-18T05:17:48.305Z,28.70
2019-03-18T05:20:24.123Z,22.00
2019-03-18T05:22:57.643Z,22.83
2019-03-18T05:25:31.681Z,28.60
2019-03-18T05:28:05.448Z,17.20
2019-03-18T05:30:39.936Z,20.03
2019-03-18T05:33:16.363Z,24.37
2019-03-18T05:35:50.634Z,28.53
2019-03-18T05:38:25.321Z,18.97
2019-03-18T05:40:59.461Z,23.37
2019-03-18T05:43:33.041Z,25.87
2019-03-18T05:46:06.920Z,24.97
2019-03-18T05:48:46.652Z,21.63
2019-03-18T05:51:20.650Z,22.27
2019-03-18T05:53:54.376Z,27.23
2019-03-18T05:56:29.086Z,26.70
2019-03-18T05:59:04.101Z,26.97
2019-03-18T06:01:39.430Z,21.97
2019-03-18T06:04:13.803Z,20.93
2019-03-18T06:06:50.791Z,22.60
2019-03-18T06:09:24.860Z,18.77
2019-03-18T06:11:59.429Z,29.50
2019-03-18T06:14:33.020Z,23.67
2019-03-18T06:17:07.104Z,28.13
2019-03-18T06:19:41.238Z,22.73
2019-03-18T06:22:15.705Z,22.07
2019-03-18T06:24:51.992Z,27.63
2019-03-18T06:27:25.670Z,27.00
2019-03-18T06:29:59.491Z,36.47
2019-03-18T06:32:35.685Z,33.73
2019-03-18T06:35:10.815Z,28.87
2019-03-18T06:37:45.892Z,34.33
2019-03-18T06:40:19.961Z,33.83
2019-03-18T06:42:54.329Z,31.17
2019-03-18T06:45:28.210Z,34.00
2019-03-18T06:48:05.118Z,39.73
2019-03-18T06:50:39.379Z,49.50
2019-03-18T06:53:14.608Z,40.13
2019-03-18T06:55:50.571Z,43.73
2019-03-18T06:58:25.960Z,47.90
2019-03-18T07:01:00.481Z,46.17
2019-03-18T07:03:35.773Z,70.93
2019-03-18T07:06:12.253Z,80.23
2019-03-18T07:08:49.911Z,43.00
2019-03-18T07:11:23.669Z,60.63
2019-03-18T07:13:58.740Z,54.20
2019-03-18T07:16:32.977Z,51.67
2019-03-18T07:19:08.276Z,66.57
2019-03-18T07:21:46.155Z,50.10
2019-03-18T07:24:20.875Z,75.47
2019-03-18T07:26:57.292Z,45.67
2019-03-18T07:29:33.235Z,37.47
2019-03-18T07:32:08.514Z,70.57
2019-03-18T07:34:43.479Z,47.53
2019-03-18T07:37:20.697Z,52.03
2019-03-18T07:39:55.656Z,24.73
2019-03-18T07:42:29.998Z,34.40
2019-03-18T07:45:05.737Z,45.47
2019-03-18T07:47:40.793Z,55.40
2019-03-18T07:50:16.216Z,25.77
2019-03-18T07:52:52.407Z,24.00
2019-03-18T07:55:27.924Z,25.77
2019-03-18T07:58:03.301Z,38.20
2019-03-18T08:00:38.054Z,43.63
2019-03-18T08:03:12.584Z,67.43
2019-03-18T08:05:46.284Z,46.60
2019-03-18T08:08:21.542Z,36.67
2019-03-18T08:10:58.435Z,39.73
2019-03-18T08:13:34.002Z,25.23
2019-03-18T08:16:09.017Z,34.73
2019-03-18T08:18:43.649Z,39.43
2019-03-18T08:21:20.211Z,49.83
2019-03-18T08:23:54.933Z,32.93
2019-03-18T08:26:33.536Z,40.50
2019-03-18T08:29:09.075Z,48.03
2019-03-18T08:31:44.130Z,17.83
2019-03-18T08:34:20.561Z,30.07
2019-03-18T08:36:55.676Z,33.07
2019-03-18T08:39:30.063Z,25.20
2019-03-18T08:42:05.333Z,24.70
2019-03-18T08:44:41.954Z,21.40
2019-03-18T08:47:18.202Z,21.13
2019-03-18T08:49:54.864Z,29.50
2019-03-18T08:52:28.942Z,22.27
2019-03-18T08:55:05.700Z,26.97
2019-03-18T08:57:51.224Z,26.87
2019-03-18T09:00:27.798Z,22.57
2019-03-18T09:03:01.996Z,28.67
2019-03-18T09:05:36.702Z,32.97
2019-03-18T09:08:12.981Z,22.03
2019-03-18T09:10:47.558Z,27.37
2019-03-18T09:13:22.274Z,23.43
2019-03-18T09:15:56.030Z,33.87
2019-03-18T09:18:30.436Z,25.97
2019-03-18T09:21:04.799Z,50.23
2019-03-18T09:23:39.751Z,38.83
2019-03-18T09:26:16.265Z,38.80
2019-03-18T09:28:52.413Z,40.73
2019-03-18T09:31:29.370Z,18.20
2019-03-18T09:34:03.960Z,49.90
2019-03-18T09:36:38.863Z,39.30
2019-03-18T09:39:13.274Z,34.87
2019-03-18T09:41:49.151Z,39.03
2019-03-18T09:44:24.027Z,21.53
2019-03-18T09:47:03.443Z,29.87
2019-03-18T09:49:38.575Z,29.60
2019-03-18T09:52:13.984Z,24.03
2019-03-18T09:54:48.723Z,24.93
2019-03-18T09:57:26.273Z,15.57
2019-03-18T10:00:00.986Z,20.43
2019-03-18T10:02:36.720Z,20.23
2019-03-18T10:05:13.412Z,18.40
2019-03-18T10:07:47.499Z,29.53
2019-03-18T10:10:22.115Z,19.13
2019-03-18T10:12:58.225Z,10.53
2019-03-18T10:15:33.929Z,16.27
2019-03-18T10:18:08.781Z,14.37
2019-03-18T10:20:45.936Z,23.77
2019-03-18T10:23:21.184Z,21.43
2019-03-18T10:25:57.295Z,28.37
2019-03-18T10:28:32.951Z,17.10
2019-03-18T10:31:07.654Z,15.20
2019-03-18T10:33:44.974Z,20.10
2019-03-18T10:36:19.787Z,24.33
2019-03-18T10:38:53.256Z,17.80
2019-03-18T10:41:27.814Z,18.47
2019-03-18T10:44:01.632Z,14.90
2019-03-18T10:46:37.162Z,20.27
2019-03-18T10:49:12.740Z,22.17
2019-03-18T10:51:48.544Z,15.80
2019-03-18T10:54:30.764Z,18.97
2019-03-18T10:57:01.358Z,26.80
2019-03-18T10:59:36.932Z,26.57
2019-03-18T11:02:12.147Z,23.60
2019-03-18T11:04:48.114Z,19.33
2019-03-18T11:07:22.571Z,24.43
2019-03-18T11:09:59.141Z,18.97
2019-03-18T11:12:34.584Z,16.83
2019-03-18T11:15:10.235Z,24.67
2019-03-18T11:17:45.982Z,19.17
2019-03-18T11:20:21.954Z,16.40
2019-03-18T11:22:57.180Z,13.17
2019-03-18T11:25:31.573Z,21.63
2019-03-18T11:28:06.918Z,14.47
2019-03-18T11:30:42.998Z,15.53
2019-03-18T11:33:20.711Z,12.10
2019-03-18T11:35:56.418Z,18.73
2019-03-18T11:38:35.114Z,15.67
2019-03-18T11:41:12.270Z,24.30
2019-03-18T11:43:46.349Z,12.67
2019-03-18T11:46:20.935Z,18.63
2019-03-18T11:48:55.928Z,14.13
2019-03-18T11:51:30.172Z,18.80
2019-03-18T11:54:06.715Z,14.63
2019-03-18T11:56:40.388Z,13.03
2019-03-18T11:59:20.824Z,30.33
2019-03-18T12:01:55.678Z,15.97
2019-03-18T12:04:32.800Z,17.57
2019-03-18T12:07:07.855Z,22.23
2019-03-18T12:09:42.846Z,18.63
2019-03-18T12:12:18.564Z,12.00
2019-03-18T12:14:53.225Z,17.13
2019-03-18T12:17:31.602Z,12.93
2019-03-18T12:20:09.805Z,14.33
2019-03-18T12:22:45.440Z,14.37
2019-03-18T12:25:22.987Z,10.83
2019-03-18T12:27:57.485Z,11.40
2019-03-18T12:30:32.280Z,15.17
2019-03-18T12:33:09.508Z,13.47
2019-03-18T12:35:45.265Z,12.90
2019-03-18T12:38:20.896Z,13.47
2019-03-18T12:40:54.892Z,10.87
2019-03-18T12:43:28.827Z,20.17
2019-03-18T12:46:03.928Z,16.70
2019-03-18T12:48:38.433Z,20.17
2019-03-18T12:51:13.034Z,17.63
2019-03-18T12:53:49.944Z,18.70
2019-03-18T12:56:25.021Z,18.07
2019-03-18T12:59:01.650Z,12.03
2019-03-18T13:01:36.910Z,15.23
2019-03-18T13:04:13.547Z,14.77
2019-03-18T13:06:49.046Z,16.53
2019-03-18T13:09:23.083Z,16.53
2019-03-18T13:11:58.962Z,16.37
2019-03-18T13:14:33.563Z,7.73
2019-03-18T13:17:08.538Z,14.37
2019-03-18T13:19:42.768Z,14.13
2019-03-18T13:22:21.738Z,14.27
2019-03-18T13:24:55.829Z,14.80
2019-03-18T13:27:30.278Z,16.10
2019-03-18T13:30:15.282Z,10.10
2019-03-18T13:32:48.422Z,11.33
2019-03-18T13:35:24.087Z,11.47
2019-03-18T13:37:59.789Z,13.77
2019-03-18T13:40:35.601Z,8.83
2019-03-18T13:43:11.417Z,12.87
2019-03-18T13:45:54.720Z,16.30
2019-03-18T13:48:21.397Z,11.53
2019-03-18T13:50:57.705Z,12.50
2019-03-18T13:53:34.080Z,13.03
2019-03-18T13:56:10.247Z,10.60
2019-03-18T13:58:47.074Z,11.93
2019-03-18T14:01:22.863Z,14.23
2019-03-18T14:03:57.529Z,11.07
2019-03-18T14:06:31.369Z,10.43
2019-03-18T14:09:07.634Z,9.67
2019-03-18T14:11:43.572Z,18.53
2019-03-18T14:14:18.576Z,11.80
2019-03-18T14:16:53.022Z,12.40
2019-03-18T14:19:28.713Z,11.00
2019-03-18T14:22:03.461Z,9.53
2019-03-18T14:24:43.246Z,11.03
2019-03-18T14:27:16.715Z,10.10
2019-03-18T14:29:52.148Z,13.00
2019-03-18T14:32:26.724Z,15.03
2019-03-18T14:35:04.009Z,13.47
2019-03-18T14:37:39.654Z,13.60
2019-03-18T14:40:14.825Z,13.57
2019-03-18T14:42:48.262Z,10.63
2019-03-18T14:45:23.346Z,9.63
2019-03-18T14:47:57.212Z,10.23
2019-03-18T14:50:32.023Z,12.53
2019-03-18T14:53:06.263Z,13.23
2019-03-18T14:55:42.410Z,16.77
2019-03-18T14:58:16.807Z,9.97
2019-03-18T15:00:53.177Z,11.40
2019-03-18T15:03:27.952Z,15.33
2019-03-18T15:06:02.388Z,18.27
2019-03-18T15:08:37.609Z,16.47
2019-03-18T15:11:14.043Z,9.57
2019-03-18T15:13:51.322Z,7.23
2019-03-18T15:16:26.050Z,14.50
2019-03-18T15:19:01.756Z,12.13
2019-03-18T15:21:38.434Z,12.90
2019-03-18T15:24:17.294Z,18.73
2019-03-18T15:26:49.291Z,14.13
2019-03-18T15:29:22.525Z,16.70
2019-03-18T15:32:01.422Z,12.83
2019-03-18T15:34:34.988Z,15.90
2019-03-18T15:37:10.400Z,24.63
2019-03-18T15:39:49.501Z,14.97
2019-03-18T15:42:25.678Z,12.10
2019-03-18T15:45:03.020Z,7.33
2019-03-18T15:47:37.395Z,9.20
2019-03-18T15:50:14.063Z,14.67
2019-03-18T15:52:48.413Z,13.60
2019-03-18T15:55:26.763Z,12.80
2019-03-18T15:58:02.151Z,12.03
2019-03-18T16:00:37.950Z,10.93
2019-03-18T16:03:14.262Z,9.33
2019-03-18T16:05:48.758Z,14.23
2019-03-18T16:08:23.166Z,15.17
2019-03-18T16:10:57.819Z,12.80
2019-03-18T16:13:34.259Z,10.73
2019-03-18T16:16:09.124Z,14.30
2019-03-18T16:18:45.201Z,27.87
2019-03-18T16:21:21.787Z,11.07
2019-03-18T16:24:04.111Z,10.43
2019-03-18T16:26:37.888Z,13.47
2019-03-18T16:29:14.190Z,16.27
2019-03-18T16:31:49.139Z,11.53
2019-03-18T16:34:25.878Z,11.23
2019-03-18T16:37:03.828Z,13.93
2019-03-18T16:39:39.103Z,16.50
2019-03-18T16:42:18.464Z,19.10
2019-03-18T16:44:53.527Z,14.20
2019-03-18T16:47:27.426Z,11.00
2019-03-18T16:50:11.005Z,26.07
2019-03-18T16:52:45.097Z,17.60
2019-03-18T16:55:19.601Z,17.93
2019-03-18T16:57:51.966Z,17.90
2019-03-18T17:00:25.885Z,14.30
2019-03-18T17:03:00.586Z,9.50
2019-03-18T17:05:37.630Z,13.83
2019-03-18T17:08:14.679Z,14.83
2019-03-18T17:10:50.403Z,14.33
2019-03-18T17:13:26.548Z,14.60
2019-03-18T17:16:02.622Z,15.10
2019-03-18T17:18:40.020Z,14.33
2019-03-18T17:21:16.086Z,18.70
2019-03-18T17:23:55.758Z,15.63
2019-03-18T17:26:31.180Z,17.60
2019-03-18T17:29:05.317Z,18.60
2019-03-18T17:31:41.390Z,18.40
2019-03-18T17:34:15.794Z,13.93
2019-03-18T17:36:51.605Z,14.13
2019-03-18T17:39:29.207Z,16.87
2019-03-18T17:42:03.701Z,21.40
2019-03-18T17:44:39.203Z,13.87
2019-03-18T17:47:14.013Z,10.33
2019-03-18T17:49:46.285Z,12.97
2019-03-18T17:52:22.213Z,10.93
2019-03-18T17:54:56.485Z,14.43
2019-03-18T17:57:33.778Z,22.53
2019-03-18T18:00:09.894Z,16.43
2019-03-18T18:02:44.638Z,15.30
2019-03-18T18:05:20.272Z,15.30
2019-03-18T18:07:55.575Z,24.27
2019-03-18T18:10:29.460Z,27.17
2019-03-18T18:13:05.439Z,27.20
2019-03-18T18:15:42.874Z,22.77
2019-03-18T18:18:17.415Z,21.93
2019-03-18T18:20:51.313Z,27.90
2019-03-18T18:23:26.266Z,21.03
2019-03-18T18:26:04.082Z,21.57
2019-03-18T18:28:40.909Z,15.63
2019-03-18T18:31:15.470Z,14.80
2019-03-18T18:33:50.574Z,20.27
2019-03-18T18:36:25.490Z,17.20
2019-03-18T18:39:00.062Z,16.20
2019-03-18T18:41:34.170Z,16.03
2019-03-18T18:44:09.052Z,12.10
2019-03-18T18:46:43.337Z,18.67
2019-03-18T18:49:20.460Z,24.13
2019-03-18T18:51:55.136Z,17.63
2019-03-18T18:54:29.710Z,18.30
2019-03-18T18:57:06.141Z,14.40
2019-03-18T18:59:40.892Z,14.90
2019-03-18T19:02:15.361Z,15.97
2019-03-18T19:04:49.474Z,17.93
2019-03-18T19:07:39.766Z,53.73
2019-03-18T19:10:16.469Z,27.70
2019-03-18T19:12:52.206Z,31.30
2019-03-18T19:15:26.946Z,19.43
2019-03-18T19:18:04.695Z,23.13
2019-03-18T19:20:39.348Z,31.67
2019-03-18T19:23:13.390Z,33.03
2019-03-18T19:25:49.054Z,43.03
2019-03-18T19:28:22.743Z,21.60
2019-03-18T19:30:57.013Z,22.73
2019-03-18T19:33:31.477Z,26.73
2019-03-18T19:36:09.291Z,16.63
2019-03-18T19:38:47.032Z,28.73
2019-03-18T19:41:21.648Z,30.23
2019-03-18T19:43:55.538Z,37.67
2019-03-18T19:46:29.824Z,32.40
2019-03-18T19:49:05.177Z,19.60
2019-03-18T19:51:41.627Z,26.23
2019-03-18T19:54:16.153Z,31.90
2019-03-18T19:56:51.042Z,19.13
2019-03-18T19:59:25.325Z,25.67
2019-03-18T20:01:59.884Z,22.00
2019-03-18T20:04:35.632Z,53.23
2019-03-18T20:07:13.312Z,36.90
2019-03-18T20:09:53.217Z,32.40
2019-03-18T20:12:29.855Z,42.33
2019-03-18T20:15:03.961Z,34.50
2019-03-18T20:17:39.068Z,35.93
2019-03-18T20:20:17.831Z,41.60
2019-03-18T20:22:53.209Z,43.80
2019-03-18T20:25:29.723Z,74.37
2019-03-18T20:28:04.662Z,39.07
2019-03-18T20:30:39.022Z,69.23
2019-03-18T20:33:13.243Z,81.50
2019-03-18T20:35:47.013Z,59.93
2019-03-18T20:38:24.195Z,50.97
2019-03-18T20:40:58.967Z,54.33
2019-03-18T20:43:33.233Z,33.70
2019-03-18T20:46:08.016Z,52.23
2019-03-18T20:48:43.011Z,47.77
2019-03-18T20:51:18.914Z,53.30
2019-03-18T20:53:53.447Z,79.47
2019-03-18T20:56:27.516Z,46.50
2019-03-18T20:59:06.494Z,68.00
2019-03-18T21:01:42.890Z,63.83
2019-03-18T21:04:18.729Z,75.37
2019-03-18T21:06:54.712Z,60.57
2019-03-18T21:09:28.957Z,43.93
2019-03-18T21:12:02.911Z,42.93
2019-03-18T21:14:37.979Z,50.30
2019-03-18T21:17:12.677Z,55.27
2019-03-18T21:19:46.950Z,61.20
2019-03-18T21:22:23.376Z,39.43
2019-03-18T21:24:57.475Z,26.40
2019-03-18T21:27:31.687Z,32.63
2019-03-18T21:30:06.639Z,29.90
2019-03-18T21:32:40.689Z,45.93
2019-03-18T21:35:17.683Z,46.07
2019-03-18T21:37:52.458Z,50.50
2019-03-18T21:40:30.921Z,64.33
2019-03-18T21:43:07.253Z,40.73
2019-03-18T21:45:41.807Z,61.40
2019-03-18T21:48:15.462Z,34.87
2019-03-18T21:50:49.989Z,41.60
2019-03-18T21:53:27.108Z,37.23
2019-03-18T21:56:01.416Z,44.37
2019-03-18T21:58:35.884Z,33.97
2019-03-18T22:01:10.127Z,42.77
2019-03-18T22:03:43.926Z,32.13
2019-03-18T22:06:19.626Z,51.37
2019-03-18T22:08:53.793Z,27.53
2019-03-18T22:11:27.984Z,32.27
2019-03-18T22:14:02.993Z,41.17
2019-03-18T22:16:37.399Z,47.70
2019-03-18T22:19:11.307Z,41.80
2019-03-18T22:21:45.577Z,33.07
2019-03-18T22:24:19.912Z,41.10
2019-03-18T22:26:54.708Z,30.83
2019-03-18T22:29:28.503Z,23.03
2019-03-18T22:32:03.807Z,43.33
2019-03-18T22:34:37.638Z,49.00
2019-03-18T22:37:11.822Z,42.23
2019-03-18T22:39:45.634Z,48.87
2019-03-18T22:42:22.339Z,34.10
2019-03-18T22:44:55.803Z,26.90
2019-03-18T22:47:30.296Z,36.83
2019-03-18T22:50:07.223Z,36.60
2019-03-18T22:52:41.293Z,26.43
2019-03-18T22:55:15.360Z,37.60
2019-03-18T22:57:49.667Z,29.03
2019-03-18T23:00:34.111Z,31.27
2019-03-18T23:03:08.691Z,42.77
2019-03-18T23:05:42.336Z,30.13
2019-03-18T23:08:16.141Z,31.77
2019-03-18T23:10:52.523Z,54.47
2019-03-18T23:13:27.734Z,41.60
2019-03-18T23:16:01.523Z,34.40
2019-03-18T23:18:37.098Z,32.80
2019-03-18T23:21:10.567Z,24.70
2019-03-18T23:23:44.830Z,25.77
2019-03-18T23:26:18.562Z,26.20
2019-03-18T23:28:52.647Z,26.87
2019-03-18T23:31:28.434Z,24.87
2019-03-18T23:34:02.731Z,19.57
2019-03-18T23:36:36.522Z,44.27
2019-03-18T23:39:11.712Z,20.37
2019-03-18T23:41:45.463Z,21.50
2019-03-18T23:44:23.231Z,27.83
2019-03-18T23:47:04.052Z,19.10
2019-03-18T23:49:38.593Z,16.90
2019-03-18T23:52:12.395Z,16.87
2019-03-18T23:54:47.613Z,18.43
2019-03-18T23:57:21.747Z,22.80
2019-03-18T23:59:55.963Z,38.37
